createdAt,value
2023-05-01T00:02:24.942Z,32.74
2023-05-01T00:04:51.794Z,32.91
2023-05-01T00:07:18.646Z,32.89
2023-05-01T00:09:45.847Z,32.68
2023-05-01T00:12:12.660Z,32.35
2023-05-01T00:14:39.454Z,32.50
2023-05-01T00:17:06.736Z,32.41
2023-05-01T00:19:33.479Z,32.42
2023-05-01T00:22:00.211Z,32.27
2023-05-01T00:24:27.388Z,32.09
2023-05-01T00:26:54.227Z,32.21
2023-05-01T00:29:21.497Z,32.39
2023-05-01T00:31:48.537Z,34.71
2023-05-01T00:34:15.503Z,34.24
2023-05-01T00:36:42.290Z,37.80
2023-05-01T00:39:09.041Z,35.45
2023-05-01T00:41:35.879Z,34.17
2023-05-01T00:44:03.119Z,33.83
2023-05-01T00:46:30.339Z,33.38
2023-05-01T00:48:57.259Z,33.13
2023-05-01T00:51:24.113Z,33.07
2023-05-01T00:53:50.985Z,33.04
2023-05-01T00:56:17.838Z,32.37
2023-05-01T00:58:44.590Z,32.82
2023-05-01T01:01:11.361Z,32.50
2023-05-01T01:03:38.173Z,32.41
2023-05-01T01:06:04.989Z,32.20
2023-05-01T01:08:32.753Z,32.45
2023-05-01T01:10:59.672Z,31.98
2023-05-01T01:13:26.431Z,31.95
2023-05-01T01:15:53.178Z,32.42
2023-05-01T01:18:20.002Z,32.16
2023-05-01T01:20:46.758Z,31.97
2023-05-01T01:23:13.575Z,32.04
2023-05-01T01:25:40.360Z,31.83
2023-05-01T01:28:07.243Z,34.30
2023-05-01T01:30:34.070Z,34.79
2023-05-01T01:33:01.342Z,37.29
2023-05-01T01:35:28.195Z,35.99
2023-05-01T01:37:54.931Z,34.13
2023-05-01T01:40:21.715Z,33.95
2023-05-01T01:42:48.575Z,33.15
2023-05-01T01:45:15.305Z,33.20
2023-05-01T01:47:42.183Z,32.91
2023-05-01T01:50:09.458Z,32.58
2023-05-01T01:52:36.305Z,32.76
2023-05-01T01:55:05.122Z,32.35
2023-05-01T01:57:31.910Z,32.58
2023-05-01T01:59:58.699Z,32.58
2023-05-01T02:02:27.165Z,32.21
2023-05-01T02:04:54.047Z,32.09
2023-05-01T02:07:20.852Z,32.12
2023-05-01T02:09:47.688Z,32.27
2023-05-01T02:12:14.424Z,32.24
2023-05-01T02:14:41.174Z,32.12
2023-05-01T02:17:07.950Z,32.15
2023-05-01T02:19:34.794Z,31.89
2023-05-01T02:22:01.555Z,31.92
2023-05-01T02:24:28.310Z,31.38
2023-05-01T02:26:55.259Z,33.76
2023-05-01T02:29:22.004Z,34.48
2023-05-01T02:31:48.797Z,36.70
2023-05-01T02:34:15.562Z,35.86
2023-05-01T02:36:42.543Z,34.45
2023-05-01T02:39:09.304Z,33.64
2023-05-01T02:41:36.135Z,33.23
2023-05-01T02:44:04.293Z,33.25
2023-05-01T02:46:31.479Z,32.64
2023-05-01T02:48:58.326Z,32.87
2023-05-01T02:51:25.228Z,32.32
2023-05-01T02:53:52.048Z,32.15
2023-05-01T02:56:18.785Z,32.37
2023-05-01T02:58:45.542Z,32.38
2023-05-01T03:01:12.428Z,32.05
2023-05-01T03:03:39.467Z,32.14
2023-05-01T03:06:06.320Z,32.10
2023-05-01T03:08:33.105Z,32.07
2023-05-01T03:10:59.942Z,31.81
2023-05-01T03:13:26.727Z,31.99
2023-05-01T03:15:53.532Z,31.82
2023-05-01T03:18:20.290Z,31.83
2023-05-01T03:20:47.017Z,32.72
2023-05-01T03:23:13.805Z,34.21
2023-05-01T03:25:40.567Z,35.07
2023-05-01T03:28:07.325Z,36.40
2023-05-01T03:30:34.959Z,34.80
2023-05-01T03:33:01.799Z,33.77
2023-05-01T03:35:29.003Z,33.16
2023-05-01T03:37:56.362Z,32.90
2023-05-01T03:40:23.411Z,32.66
2023-05-01T03:42:50.196Z,32.67
2023-05-01T03:45:16.950Z,32.59
2023-05-01T03:47:43.715Z,32.46
2023-05-01T03:50:11.103Z,32.12
2023-05-01T03:52:37.910Z,32.17
2023-05-01T03:55:04.720Z,31.93
2023-05-01T03:57:31.449Z,31.86
2023-05-01T03:59:59.305Z,31.97
2023-05-01T04:02:27.538Z,31.86
2023-05-01T04:04:54.453Z,31.91
2023-05-01T04:07:21.232Z,31.71
2023-05-01T04:09:48.322Z,31.70
2023-05-01T04:12:15.104Z,31.58
2023-05-01T04:14:43.220Z,31.64
2023-05-01T04:17:10.034Z,31.60
2023-05-01T04:19:37.784Z,33.02
2023-05-01T04:22:05.499Z,34.20
2023-05-01T04:24:32.498Z,35.38
2023-05-01T04:26:59.234Z,36.36
2023-05-01T04:29:26.114Z,34.64
2023-05-01T04:31:53.061Z,33.35
2023-05-01T04:34:19.930Z,33.29
2023-05-01T04:36:46.856Z,32.54
2023-05-01T04:39:13.599Z,32.30
2023-05-01T04:41:40.346Z,32.39
2023-05-01T04:44:07.133Z,32.25
2023-05-01T04:46:33.923Z,32.41
2023-05-01T04:49:00.817Z,32.27
2023-05-01T04:51:28.936Z,32.04
2023-05-01T04:53:55.705Z,32.14
2023-05-01T04:56:22.450Z,32.24
2023-05-01T04:58:49.315Z,31.96
2023-05-01T05:01:16.114Z,31.58
2023-05-01T05:03:43.138Z,31.91
2023-05-01T05:06:11.220Z,31.77
2023-05-01T05:08:38.047Z,31.60
2023-05-01T05:11:04.831Z,31.77
2023-05-01T05:13:31.636Z,31.58
2023-05-01T05:15:58.507Z,31.56
2023-05-01T05:18:25.365Z,32.04
2023-05-01T05:20:52.305Z,34.55
2023-05-01T05:23:19.060Z,35.66
2023-05-01T05:25:45.800Z,37.56
2023-05-01T05:28:12.545Z,34.85
2023-05-01T05:30:39.289Z,33.73
2023-05-01T05:33:06.141Z,33.12
2023-05-01T05:35:32.930Z,32.92
2023-05-01T05:37:59.713Z,32.58
2023-05-01T05:40:26.492Z,32.78
2023-05-01T05:42:53.502Z,32.32
2023-05-01T05:45:20.358Z,32.03
2023-05-01T05:47:47.175Z,32.29
2023-05-01T05:50:14.043Z,32.12
2023-05-01T05:52:40.797Z,31.92
2023-05-01T05:55:07.640Z,32.04
2023-05-01T05:57:37.221Z,31.97
2023-05-01T06:00:05.397Z,31.79
2023-05-01T06:02:32.301Z,31.73
2023-05-01T06:04:59.280Z,31.48
2023-05-01T06:07:26.189Z,31.36
2023-05-01T06:09:53.214Z,31.58
2023-05-01T06:12:19.971Z,31.65
2023-05-01T06:14:47.139Z,32.35
2023-05-01T06:17:14.117Z,34.23
2023-05-01T06:19:41.312Z,34.81
2023-05-01T06:22:08.077Z,36.56
2023-05-01T06:24:36.547Z,34.44
2023-05-01T06:27:03.315Z,33.31
2023-05-01T06:29:30.890Z,32.68
2023-05-01T06:31:57.790Z,32.79
2023-05-01T06:34:24.717Z,32.58
2023-05-01T06:36:51.462Z,32.52
2023-05-01T06:39:18.257Z,32.09
2023-05-01T06:41:45.326Z,32.07
2023-05-01T06:44:12.053Z,32.27
2023-05-01T06:46:38.819Z,31.88
2023-05-01T06:49:06.514Z,31.63
2023-05-01T06:51:33.277Z,31.83
2023-05-01T06:54:00.022Z,31.68
2023-05-01T06:56:26.901Z,31.68
2023-05-01T06:58:53.643Z,31.71
2023-05-01T07:01:20.474Z,31.66
2023-05-01T07:03:47.571Z,31.71
2023-05-01T07:06:14.312Z,31.47
2023-05-01T07:08:41.087Z,31.36
2023-05-01T07:11:08.035Z,31.86
2023-05-01T07:13:35.307Z,34.40
2023-05-01T07:16:02.310Z,35.50
2023-05-01T07:18:29.576Z,37.38
2023-05-01T07:20:56.306Z,34.63
2023-05-01T07:23:23.598Z,33.63
2023-05-01T07:25:50.468Z,33.34
2023-05-01T07:28:18.029Z,32.90
2023-05-01T07:30:44.771Z,32.71
2023-05-01T07:33:11.920Z,32.62
2023-05-01T07:35:38.680Z,32.08
2023-05-01T07:38:05.466Z,32.27
2023-05-01T07:40:32.362Z,32.13
2023-05-01T07:42:59.327Z,31.77
2023-05-01T07:45:26.085Z,32.02
2023-05-01T07:47:53.194Z,31.63
2023-05-01T07:50:19.981Z,31.63
2023-05-01T07:52:46.798Z,31.63
2023-05-01T07:55:13.596Z,31.69
2023-05-01T07:57:40.375Z,31.62
2023-05-01T08:00:07.609Z,31.65
2023-05-01T08:02:34.454Z,31.53
2023-05-01T08:05:02.677Z,31.46
2023-05-01T08:07:29.487Z,31.77
2023-05-01T08:09:59.176Z,35.34
2023-05-01T08:12:27.282Z,35.52
2023-05-01T08:14:54.076Z,34.09
2023-05-01T08:17:21.199Z,33.07
2023-05-01T08:19:47.950Z,32.72
2023-05-01T08:22:14.694Z,32.38
2023-05-01T08:24:42.746Z,32.07
2023-05-01T08:27:09.499Z,32.05
2023-05-01T08:29:36.238Z,31.97
2023-05-01T08:32:02.994Z,31.64
2023-05-01T08:34:29.802Z,31.69
2023-05-01T08:36:57.042Z,31.46
2023-05-01T08:39:23.863Z,31.23
2023-05-01T08:41:50.733Z,31.27
2023-05-01T08:44:17.485Z,31.59
2023-05-01T08:46:44.648Z,32.70
2023-05-01T08:49:11.463Z,35.50
2023-05-01T08:51:38.413Z,36.04
2023-05-01T08:54:05.181Z,33.94
2023-05-01T08:56:33.355Z,32.98
2023-05-01T08:59:00.454Z,32.37
2023-05-01T09:01:27.398Z,32.35
2023-05-01T09:03:54.201Z,32.25
2023-05-01T09:06:21.124Z,31.98
2023-05-01T09:08:47.915Z,31.99
2023-05-01T09:11:14.658Z,31.57
2023-05-01T09:13:41.442Z,31.61
2023-05-01T09:16:08.274Z,31.57
2023-05-01T09:18:35.082Z,31.56
2023-05-01T09:21:01.831Z,31.25
2023-05-01T09:23:28.592Z,32.12
2023-05-01T09:25:55.495Z,35.77
2023-05-01T09:28:22.247Z,36.50
2023-05-01T09:30:49.023Z,33.92
2023-05-01T09:33:18.655Z,33.06
2023-05-01T09:35:45.829Z,32.52
2023-05-01T09:38:12.598Z,32.52
2023-05-01T09:40:39.331Z,32.17
2023-05-01T09:43:06.091Z,32.07
2023-05-01T09:45:32.870Z,32.11
2023-05-01T09:47:59.626Z,31.86
2023-05-01T09:50:26.459Z,31.80
2023-05-01T09:52:53.232Z,31.43
2023-05-01T09:55:20.077Z,31.66
2023-05-01T09:57:47.100Z,31.77
2023-05-01T10:00:15.350Z,31.64
2023-05-01T10:02:42.162Z,31.52
2023-05-01T10:05:09.226Z,32.93
2023-05-01T10:07:35.977Z,36.22
2023-05-01T10:10:03.077Z,36.59
2023-05-01T10:12:32.433Z,34.17
2023-05-01T10:15:03.402Z,33.07
2023-05-01T10:17:34.875Z,32.62
2023-05-01T10:20:01.674Z,32.20
2023-05-01T10:22:28.562Z,32.42
2023-05-01T10:24:55.657Z,31.98
2023-05-01T10:27:22.759Z,32.02
2023-05-01T10:29:49.617Z,31.89
2023-05-01T10:32:16.379Z,31.78
2023-05-01T10:34:43.150Z,31.73
2023-05-01T10:37:09.910Z,31.50
2023-05-01T10:39:36.709Z,31.53
2023-05-01T10:42:03.648Z,31.69
2023-05-01T10:44:30.776Z,31.68
2023-05-01T10:46:57.772Z,32.50
2023-05-01T10:49:24.862Z,35.83
2023-05-01T10:51:51.626Z,36.47
2023-05-01T10:54:18.405Z,34.20
2023-05-01T10:56:45.191Z,33.12
2023-05-01T10:59:12.839Z,32.57
2023-05-01T11:01:39.866Z,32.49
2023-05-01T11:04:10.123Z,32.21
2023-05-01T11:06:37.983Z,32.26
2023-05-01T11:09:04.974Z,32.23
2023-05-01T11:11:31.766Z,32.08
2023-05-01T11:13:58.580Z,32.00
2023-05-01T11:16:25.324Z,31.59
2023-05-01T11:18:52.124Z,31.83
2023-05-01T11:21:18.871Z,31.82
2023-05-01T11:23:45.625Z,31.85
2023-05-01T11:26:12.381Z,31.66
2023-05-01T11:28:39.125Z,31.93
2023-05-01T11:31:05.873Z,35.88
2023-05-01T11:33:32.649Z,36.85
2023-05-01T11:36:00.193Z,34.53
2023-05-01T11:38:27.143Z,33.20
2023-05-01T11:40:54.003Z,32.69
2023-05-01T11:43:20.758Z,32.38
2023-05-01T11:45:47.595Z,32.22
2023-05-01T11:48:14.480Z,32.02
2023-05-01T11:50:42.673Z,31.96
2023-05-01T11:53:11.532Z,31.81
2023-05-01T11:55:41.274Z,31.63
2023-05-01T11:58:08.016Z,32.01
2023-05-01T12:00:36.628Z,31.72
2023-05-01T12:03:03.779Z,31.80
2023-05-01T12:05:30.755Z,31.55
2023-05-01T12:07:57.503Z,31.41
2023-05-01T12:10:24.280Z,35.50
2023-05-01T12:12:51.017Z,36.50
2023-05-01T12:15:17.775Z,35.08
2023-05-01T12:17:46.756Z,33.28
2023-05-01T12:20:13.627Z,32.85
2023-05-01T12:22:40.584Z,32.42
2023-05-01T12:25:07.354Z,32.31
2023-05-01T12:27:34.278Z,32.08
2023-05-01T12:30:01.041Z,32.29
2023-05-01T12:32:27.859Z,31.86
2023-05-01T12:34:54.632Z,31.91
2023-05-01T12:37:22.042Z,31.83
2023-05-01T12:39:49.498Z,31.81
2023-05-01T12:42:16.822Z,31.31
2023-05-01T12:44:43.572Z,31.89
2023-05-01T12:47:10.371Z,31.79
2023-05-01T12:49:37.389Z,31.67
2023-05-01T12:52:04.196Z,32.14
2023-05-01T12:54:30.987Z,35.85
2023-05-01T12:56:58.839Z,36.31
2023-05-01T12:59:25.679Z,34.11
2023-05-01T13:01:52.474Z,32.80
2023-05-01T13:04:19.347Z,32.35
2023-05-01T13:06:46.223Z,32.36
2023-05-01T13:09:15.229Z,32.23
2023-05-01T13:11:41.984Z,31.95
2023-05-01T13:14:08.871Z,32.20
2023-05-01T13:16:35.676Z,31.89
2023-05-01T13:19:05.579Z,31.93
2023-05-01T13:21:32.710Z,32.07
2023-05-01T13:23:59.507Z,31.91
2023-05-01T13:26:27.033Z,31.62
2023-05-01T13:28:53.797Z,31.91
2023-05-01T13:31:20.788Z,34.37
2023-05-01T13:33:47.564Z,36.43
2023-05-01T13:36:25.295Z,36.18
2023-05-01T13:38:53.975Z,33.46
2023-05-01T13:41:20.890Z,32.96
2023-05-01T13:43:47.661Z,32.53
2023-05-01T13:46:15.097Z,32.18
2023-05-01T13:48:41.939Z,32.42
2023-05-01T13:51:09.260Z,31.90
2023-05-01T13:53:36.053Z,32.37
2023-05-01T13:56:02.806Z,32.16
2023-05-01T13:58:30.020Z,31.73
2023-05-01T14:00:57.198Z,31.77
2023-05-01T14:03:24.089Z,31.84
2023-05-01T14:05:50.930Z,32.08
2023-05-01T14:08:17.719Z,35.69
2023-05-01T14:10:44.455Z,36.75
2023-05-01T14:13:11.189Z,35.26
2023-05-01T14:15:42.954Z,33.59
2023-05-01T14:18:10.556Z,32.90
2023-05-01T14:20:37.359Z,32.74
2023-05-01T14:23:04.176Z,32.45
2023-05-01T14:25:31.388Z,32.43
2023-05-01T14:27:58.132Z,32.30
2023-05-01T14:30:26.080Z,32.26
2023-05-01T14:32:53.137Z,32.17
2023-05-01T14:35:19.933Z,31.86
2023-05-01T14:37:46.793Z,32.06
2023-05-01T14:40:13.643Z,31.62
2023-05-01T14:42:40.403Z,31.88
2023-05-01T14:45:07.523Z,34.29
2023-05-01T14:47:34.296Z,37.14
2023-05-01T14:50:01.122Z,36.61
2023-05-01T14:52:27.966Z,33.98
2023-05-01T14:54:54.710Z,33.42
2023-05-01T14:57:21.482Z,33.18
2023-05-01T14:59:48.238Z,32.53
2023-05-01T15:02:15.172Z,32.52
2023-05-01T15:04:42.007Z,32.48
2023-05-01T15:07:08.825Z,32.41
2023-05-01T15:09:35.564Z,32.09
2023-05-01T15:12:04.929Z,32.16
2023-05-01T15:14:32.926Z,32.21
2023-05-01T15:16:59.690Z,32.10
2023-05-01T15:19:26.451Z,32.23
2023-05-01T15:21:53.311Z,31.87
2023-05-01T15:24:20.163Z,35.66
2023-05-01T15:26:46.905Z,36.97
2023-05-01T15:29:13.735Z,35.70
2023-05-01T15:31:40.707Z,33.94
2023-05-01T15:34:07.500Z,33.34
2023-05-01T15:36:34.574Z,33.01
2023-05-01T15:39:01.321Z,32.70
2023-05-01T15:41:28.069Z,32.57
2023-05-01T15:43:55.038Z,32.53
2023-05-01T15:46:23.336Z,32.58
2023-05-01T15:48:50.208Z,32.11
2023-05-01T15:51:17.022Z,32.21
2023-05-01T15:53:43.948Z,32.20
2023-05-01T15:56:10.717Z,32.20
2023-05-01T15:58:37.501Z,32.16
2023-05-01T16:01:04.299Z,36.03
2023-05-01T16:03:31.756Z,36.89
2023-05-01T16:05:59.115Z,34.96
2023-05-01T16:08:26.214Z,33.70
2023-05-01T16:10:53.749Z,33.23
2023-05-01T16:13:20.525Z,33.17
2023-05-01T16:15:47.257Z,32.76
2023-05-01T16:18:14.135Z,32.51
2023-05-01T16:20:41.039Z,32.52
2023-05-01T16:23:08.489Z,32.59
2023-05-01T16:25:35.242Z,32.38
2023-05-01T16:28:02.035Z,32.42
2023-05-01T16:30:28.836Z,32.04
2023-05-01T16:32:55.674Z,32.33
2023-05-01T16:35:22.484Z,32.10
2023-05-01T16:37:49.241Z,33.61
2023-05-01T16:40:16.204Z,33.03
2023-05-01T16:42:42.993Z,32.56
2023-05-01T16:45:09.748Z,32.45
2023-05-01T16:47:36.724Z,35.53
2023-05-01T16:50:03.865Z,36.76
2023-05-01T16:52:30.756Z,35.47
2023-05-01T16:54:59.283Z,33.95
2023-05-01T16:57:26.040Z,33.54
2023-05-01T16:59:52.948Z,32.93
2023-05-01T17:02:19.801Z,33.02
2023-05-01T17:04:46.784Z,32.66
2023-05-01T17:07:13.580Z,32.76
2023-05-01T17:09:40.752Z,32.35
2023-05-01T17:12:07.553Z,32.44
2023-05-01T17:14:34.373Z,32.42
2023-05-01T17:17:01.812Z,32.25
2023-05-01T17:19:28.683Z,32.28
2023-05-01T17:21:57.713Z,36.27
2023-05-01T17:24:24.518Z,37.00
2023-05-01T17:26:51.337Z,35.45
2023-05-01T17:29:18.131Z,33.52
2023-05-01T17:31:44.963Z,33.29
2023-05-01T17:34:11.771Z,33.22
2023-05-01T17:36:38.553Z,32.98
2023-05-01T17:39:05.305Z,32.87
2023-05-01T17:41:32.117Z,32.76
2023-05-01T17:43:58.957Z,32.68
2023-05-01T17:46:25.841Z,32.73
2023-05-01T17:48:53.400Z,32.65
2023-05-01T17:51:20.211Z,32.35
2023-05-01T17:53:47.162Z,32.29
2023-05-01T17:56:13.926Z,35.77
2023-05-01T17:58:41.143Z,37.24
2023-05-01T18:01:07.973Z,35.90
2023-05-01T18:03:34.915Z,34.02
2023-05-01T18:06:02.291Z,33.52
2023-05-01T18:08:29.160Z,33.23
2023-05-01T18:10:55.976Z,33.12
2023-05-01T18:13:27.837Z,32.88
2023-05-01T18:15:55.204Z,32.82
2023-05-01T18:18:22.205Z,32.73
2023-05-01T18:20:49.105Z,32.47
2023-05-01T18:23:16.004Z,32.25
2023-05-01T18:25:42.913Z,32.54
2023-05-01T18:28:10.065Z,32.42
2023-05-01T18:30:37.417Z,37.08
2023-05-01T18:33:04.593Z,37.70
2023-05-01T18:35:31.562Z,35.21
2023-05-01T18:37:58.322Z,34.22
2023-05-01T18:40:26.932Z,33.77
2023-05-01T18:42:53.693Z,33.59
2023-05-01T18:45:20.506Z,32.87
2023-05-01T18:47:47.733Z,32.93
2023-05-01T18:50:16.572Z,32.74
2023-05-01T18:52:43.329Z,32.92
2023-05-01T18:55:11.626Z,32.65
2023-05-01T18:57:41.512Z,32.59
2023-05-01T19:00:09.048Z,32.64
2023-05-01T19:02:36.648Z,32.41
2023-05-01T19:05:03.589Z,32.37
2023-05-01T19:07:30.788Z,36.08
2023-05-01T19:09:57.698Z,37.48
2023-05-01T19:12:24.536Z,36.02
2023-05-01T19:14:51.285Z,34.41
2023-05-01T19:17:18.152Z,33.82
2023-05-01T19:19:45.021Z,33.31
2023-05-01T19:22:11.760Z,33.39
2023-05-01T19:24:38.510Z,33.10
2023-05-01T19:27:05.264Z,32.91
2023-05-01T19:29:32.147Z,32.76
2023-05-01T19:32:00.376Z,32.78
2023-05-01T19:34:27.282Z,32.58
2023-05-01T19:36:56.674Z,32.70
2023-05-01T19:39:23.484Z,32.45
2023-05-01T19:41:50.408Z,32.56
2023-05-01T19:44:17.154Z,34.23
2023-05-01T19:46:44.291Z,37.54
2023-05-01T19:49:11.070Z,37.13
2023-05-01T19:51:37.841Z,34.74
2023-05-01T19:54:04.638Z,33.84
2023-05-01T19:56:31.459Z,33.38
2023-05-01T19:58:58.273Z,33.14
2023-05-01T20:01:25.084Z,32.86
2023-05-01T20:03:52.177Z,33.04
2023-05-01T20:06:19.094Z,32.94
2023-05-01T20:08:47.099Z,32.71
2023-05-01T20:11:13.894Z,32.68
2023-05-01T20:13:40.670Z,32.76
2023-05-01T20:16:09.490Z,32.64
2023-05-01T20:18:36.448Z,32.44
2023-05-01T20:21:03.426Z,32.20
2023-05-01T20:23:30.232Z,34.97
2023-05-01T20:25:57.037Z,38.08
2023-05-01T20:28:23.777Z,36.86
2023-05-01T20:30:50.671Z,34.53
2023-05-01T20:33:17.848Z,33.80
2023-05-01T20:35:45.112Z,33.30
2023-05-01T20:38:12.003Z,33.32
2023-05-01T20:40:42.172Z,33.26
2023-05-01T20:43:08.955Z,32.88
2023-05-01T20:45:35.742Z,32.79
2023-05-01T20:48:02.691Z,32.53
2023-05-01T20:50:29.587Z,32.93
2023-05-01T20:52:56.423Z,32.68
2023-05-01T20:55:23.200Z,32.57
2023-05-01T20:57:49.953Z,32.42
2023-05-01T21:00:17.109Z,32.47
2023-05-01T21:02:44.104Z,32.47
2023-05-01T21:05:11.114Z,35.20
2023-05-01T21:07:38.029Z,34.86
2023-05-01T21:10:04.844Z,38.55
2023-05-01T21:12:31.598Z,36.16
2023-05-01T21:14:58.410Z,34.58
2023-05-01T21:17:26.083Z,33.90
2023-05-01T21:19:52.895Z,33.73
2023-05-01T21:22:19.658Z,33.57
2023-05-01T21:24:46.591Z,32.96
2023-05-01T21:27:13.403Z,33.05
2023-05-01T21:29:40.693Z,33.02
2023-05-01T21:32:07.689Z,32.80
2023-05-01T21:34:34.502Z,32.79
2023-05-01T21:37:01.311Z,32.65
2023-05-01T21:39:28.070Z,32.58
2023-05-01T21:41:54.882Z,32.83
2023-05-01T21:44:21.659Z,32.75
2023-05-01T21:46:48.402Z,32.49
2023-05-01T21:49:18.356Z,32.42
2023-05-01T21:51:45.176Z,32.36
2023-05-01T21:54:11.921Z,33.72
2023-05-01T21:56:38.675Z,35.51
2023-05-01T21:59:05.735Z,37.57
2023-05-01T22:01:32.624Z,37.65
2023-05-01T22:03:59.593Z,35.30
2023-05-01T22:06:26.730Z,34.21
2023-05-01T22:08:53.568Z,33.75
2023-05-01T22:11:20.330Z,33.51
2023-05-01T22:13:47.117Z,33.55
2023-05-01T22:16:14.009Z,32.93
2023-05-01T22:18:40.826Z,32.88
2023-05-01T22:21:07.682Z,33.07
2023-05-01T22:23:34.452Z,32.96
2023-05-01T22:26:01.262Z,32.78
2023-05-01T22:28:28.311Z,32.65
2023-05-01T22:30:55.131Z,32.73
2023-05-01T22:33:21.979Z,32.69
2023-05-01T22:35:48.763Z,32.50
2023-05-01T22:38:15.603Z,32.32
2023-05-01T22:40:42.388Z,32.40
2023-05-01T22:43:10.098Z,32.17
2023-05-01T22:45:36.848Z,34.16
2023-05-01T22:48:03.657Z,35.34
2023-05-01T22:50:30.425Z,37.24
2023-05-01T22:52:57.186Z,36.93
2023-05-01T22:55:23.953Z,34.94
2023-05-01T22:57:50.871Z,34.29
2023-05-01T23:00:17.617Z,33.75
2023-05-01T23:02:44.442Z,33.51
2023-05-01T23:05:11.350Z,33.18
2023-05-01T23:07:38.500Z,33.12
2023-05-01T23:10:05.253Z,32.87
2023-05-01T23:12:32.037Z,32.80
2023-05-01T23:14:58.801Z,32.80
2023-05-01T23:17:25.578Z,32.81
2023-05-01T23:19:54.572Z,32.82
2023-05-01T23:22:22.970Z,32.36
2023-05-01T23:24:49.817Z,32.75
2023-05-01T23:27:16.763Z,32.15
2023-05-01T23:29:43.571Z,32.39
2023-05-01T23:32:10.677Z,32.39
2023-05-01T23:34:37.879Z,32.11
2023-05-01T23:37:04.638Z,34.80
2023-05-01T23:39:31.450Z,35.03
2023-05-01T23:41:58.255Z,38.37
2023-05-01T23:44:25.082Z,36.01
2023-05-01T23:46:51.957Z,34.50
2023-05-01T23:49:18.774Z,33.91
2023-05-01T23:51:45.536Z,33.97
2023-05-01T23:54:12.277Z,33.40
2023-05-01T23:56:39.068Z,33.36
2023-05-01T23:59:05.844Z,33.22
